createdAt,value
2023-03-01T00:00:02.552Z,0.00
2023-03-01T00:01:02.581Z,0.00
2023-03-01T00:02:02.575Z,0.00
2023-03-01T00:03:02.570Z,0.00
2023-03-01T00:04:02.537Z,0.00
2023-03-01T00:05:02.542Z,0.00
2023-03-01T00:06:02.543Z,0.00
2023-03-01T00:07:02.485Z,0.00
2023-03-01T00:08:02.466Z,0.00
2023-03-01T00:09:02.466Z,0.00
2023-03-01T00:10:02.469Z,0.00
2023-03-01T00:11:02.478Z,0.00
2023-03-01T00:12:02.431Z,0.00
2023-03-01T00:13:02.420Z,0.00
2023-03-01T00:14:02.403Z,0.00
2023-03-01T00:15:02.385Z,0.00
2023-03-01T00:16:02.388Z,0.00
2023-03-01T00:17:02.415Z,0.00
2023-03-01T00:18:02.362Z,0.00
2023-03-01T00:19:02.369Z,0.00
2023-03-01T00:20:02.347Z,0.00
2023-03-01T00:21:02.336Z,0.00
2023-03-01T00:23:11.898Z,0.00
2023-03-01T00:24:11.615Z,0.00
2023-03-01T00:25:11.600Z,0.00
2023-03-01T00:26:11.575Z,0.00
2023-03-01T00:27:11.570Z,0.00
2023-03-01T00:28:11.575Z,0.00
2023-03-01T00:29:11.545Z,0.00
2023-03-01T00:30:11.541Z,0.00
2023-03-01T00:31:11.601Z,0.00
2023-03-01T00:32:11.566Z,0.00
2023-03-01T00:33:11.523Z,0.00
2023-03-01T00:34:11.488Z,0.00
2023-03-01T00:35:11.475Z,0.00
2023-03-01T00:36:11.460Z,0.00
2023-03-01T00:37:11.450Z,0.00
2023-03-01T00:40:31.089Z,0.00
2023-03-01T00:41:31.021Z,0.00
2023-03-01T00:42:31.029Z,0.00
2023-03-01T00:43:30.999Z,0.00
2023-03-01T00:44:30.991Z,0.00
2023-03-01T00:45:30.975Z,0.00
2023-03-01T00:46:31.369Z,0.00
2023-03-01T00:47:30.964Z,0.00
2023-03-01T00:48:30.952Z,0.00
2023-03-01T00:49:30.971Z,0.00
2023-03-01T00:50:30.927Z,0.00
2023-03-01T00:51:30.960Z,0.00
2023-03-01T00:52:30.913Z,0.00
2023-03-01T00:53:30.890Z,0.00
2023-03-01T00:54:30.889Z,0.00
2023-03-01T00:55:30.889Z,0.00
2023-03-01T00:56:31.262Z,0.00
2023-03-01T00:57:30.889Z,0.00
2023-03-01T00:58:30.846Z,0.00
2023-03-01T00:59:30.840Z,0.00
2023-03-01T01:00:30.826Z,0.00
2023-03-01T01:01:30.936Z,0.00
2023-03-01T01:02:30.815Z,0.00
2023-03-01T01:03:30.815Z,0.00
2023-03-01T01:04:30.841Z,0.00
2023-03-01T01:05:30.781Z,0.00
2023-03-01T01:06:31.180Z,0.00
2023-03-01T01:07:30.755Z,0.00
2023-03-01T01:08:30.738Z,0.00
2023-03-01T01:09:30.758Z,0.00
2023-03-01T01:10:30.717Z,0.00
2023-03-01T01:11:30.758Z,0.00
2023-03-01T01:12:30.717Z,0.00
2023-03-01T01:13:30.685Z,0.00
2023-03-01T01:14:30.702Z,0.00
2023-03-01T01:15:30.698Z,0.00
2023-03-01T01:16:30.975Z,0.00
2023-03-01T01:17:30.663Z,0.00
2023-03-01T01:18:30.669Z,0.00
2023-03-01T01:19:30.624Z,0.00
2023-03-01T01:20:30.673Z,0.00
2023-03-01T01:21:30.599Z,0.00
2023-03-01T01:22:30.591Z,0.00
2023-03-01T01:23:30.576Z,0.00
2023-03-01T01:24:30.579Z,0.00
2023-03-01T01:25:30.570Z,0.00
2023-03-01T01:26:30.851Z,0.00
2023-03-01T01:27:30.575Z,0.00
2023-03-01T01:28:30.543Z,0.00
2023-03-01T01:29:30.518Z,0.00
2023-03-01T01:30:30.507Z,0.00
2023-03-01T01:31:30.513Z,0.00
2023-03-01T01:32:30.548Z,0.00
2023-03-01T01:33:30.472Z,0.00
2023-03-01T01:34:30.457Z,0.00
2023-03-01T01:35:30.462Z,0.00
2023-03-01T01:36:30.864Z,0.00
2023-03-01T01:37:30.424Z,0.00
2023-03-01T01:38:30.408Z,0.00
2023-03-01T01:39:30.396Z,0.00
2023-03-01T01:40:30.396Z,0.00
2023-03-01T01:41:30.383Z,0.00
2023-03-01T01:42:30.404Z,0.00
2023-03-01T01:43:30.359Z,0.00
2023-03-01T01:44:30.378Z,0.00
2023-03-01T01:45:30.343Z,0.00
2023-03-01T01:46:30.797Z,0.00
2023-03-01T01:47:30.344Z,0.00
2023-03-01T01:48:30.307Z,0.00
2023-03-01T01:49:30.303Z,0.00
2023-03-01T01:50:30.286Z,0.00
2023-03-01T01:51:30.278Z,0.00
2023-03-01T01:52:30.290Z,0.00
2023-03-01T01:53:30.271Z,0.00
2023-03-01T01:54:30.249Z,0.00
2023-03-01T01:55:30.226Z,0.00
2023-03-01T01:56:30.620Z,0.00
2023-03-01T01:57:30.207Z,0.00
2023-03-01T01:58:30.251Z,0.00
2023-03-01T01:59:30.184Z,0.00
2023-03-01T02:00:30.195Z,0.00
2023-03-01T02:01:30.161Z,0.00
2023-03-01T02:02:30.305Z,0.00
2023-03-01T02:03:30.287Z,0.00
2023-03-01T02:04:30.157Z,0.00
2023-03-01T02:05:30.131Z,0.00
2023-03-01T02:06:30.487Z,0.00
2023-03-01T02:07:30.102Z,0.00
2023-03-01T02:08:30.092Z,0.00
2023-03-01T02:09:30.082Z,0.00
2023-03-01T02:10:30.111Z,0.00
2023-03-01T02:11:30.066Z,0.00
2023-03-01T02:12:30.068Z,0.00
2023-03-01T02:13:30.037Z,0.00
2023-03-01T02:14:30.037Z,0.00
2023-03-01T02:15:30.017Z,0.00
2023-03-01T02:16:30.556Z,0.00
2023-03-01T02:17:29.998Z,0.00
2023-03-01T02:18:29.990Z,0.00
2023-03-01T02:19:29.970Z,0.00
2023-03-01T02:20:30.021Z,0.00
2023-03-01T02:21:29.950Z,0.00
2023-03-01T02:22:30.051Z,0.00
2023-03-01T02:23:29.936Z,0.00
2023-03-01T02:24:29.927Z,0.00
2023-03-01T02:25:29.913Z,0.00
2023-03-01T02:26:30.262Z,0.00
2023-03-01T02:27:29.886Z,0.00
2023-03-01T02:28:29.896Z,0.00
2023-03-01T02:29:29.881Z,0.00
2023-03-01T02:30:29.888Z,0.00
2023-03-01T02:31:29.972Z,0.00
2023-03-01T02:32:29.856Z,0.00
2023-03-01T02:33:29.861Z,0.00
2023-03-01T02:34:29.814Z,0.00
2023-03-01T02:35:29.831Z,0.00
2023-03-01T02:36:30.265Z,0.00
2023-03-01T02:37:29.781Z,0.00
2023-03-01T02:38:29.800Z,0.00
2023-03-01T02:39:29.764Z,0.00
2023-03-01T02:40:29.757Z,0.00
2023-03-01T02:41:29.744Z,0.00
2023-03-01T02:42:29.730Z,0.00
2023-03-01T02:43:29.758Z,0.00
2023-03-01T02:44:29.709Z,0.00
2023-03-01T02:45:29.704Z,0.00
2023-03-01T02:46:30.066Z,0.00
2023-03-01T02:47:29.693Z,0.00
2023-03-01T02:48:29.734Z,0.00
2023-03-01T02:49:29.653Z,0.00
2023-03-01T02:50:29.653Z,0.00
2023-03-01T02:51:29.642Z,0.00
2023-03-01T02:52:29.656Z,0.00
2023-03-01T02:53:29.611Z,0.00
2023-03-01T02:54:29.638Z,0.00
2023-03-01T02:55:29.597Z,0.00
2023-03-01T02:56:29.889Z,0.00
2023-03-01T02:57:29.601Z,0.00
2023-03-01T02:58:29.560Z,0.00
2023-03-01T02:59:29.558Z,0.00
2023-03-01T03:00:29.639Z,0.00
2023-03-01T03:01:29.531Z,0.00
2023-03-01T03:02:29.523Z,0.00
2023-03-01T03:03:29.612Z,0.00
2023-03-01T03:04:29.518Z,0.00
2023-03-01T03:05:29.496Z,0.00
2023-03-01T03:06:29.648Z,0.00
2023-03-01T03:07:29.462Z,0.00
2023-03-01T03:08:29.494Z,0.00
2023-03-01T03:09:29.492Z,0.00
2023-03-01T03:10:29.443Z,0.00
2023-03-01T03:11:29.424Z,0.00
2023-03-01T03:12:29.454Z,0.00
2023-03-01T03:13:29.528Z,0.00
2023-03-01T03:14:29.402Z,0.00
2023-03-01T03:15:29.422Z,0.00
2023-03-01T03:16:29.831Z,0.00
2023-03-01T03:17:29.357Z,0.00
2023-03-01T03:18:29.345Z,0.00
2023-03-01T03:19:29.338Z,0.00
2023-03-01T03:20:29.353Z,0.00
2023-03-01T03:21:29.352Z,0.00
2023-03-01T03:22:29.313Z,0.00
2023-03-01T03:23:29.302Z,0.00
2023-03-01T03:24:29.323Z,0.00
2023-03-01T03:25:29.271Z,0.00
2023-03-01T03:26:29.698Z,0.00
2023-03-01T03:27:29.259Z,0.00
2023-03-01T03:28:29.278Z,0.00
2023-03-01T03:29:29.227Z,0.00
2023-03-01T03:30:29.234Z,0.00
2023-03-01T03:31:29.248Z,0.00
2023-03-01T03:32:29.289Z,0.00
2023-03-01T03:33:29.218Z,0.00
2023-03-01T03:34:29.172Z,0.00
2023-03-01T03:35:29.180Z,0.00
2023-03-01T03:36:29.437Z,0.00
2023-03-01T03:37:29.171Z,0.00
2023-03-01T03:38:29.134Z,0.00
2023-03-01T03:39:29.123Z,0.00
2023-03-01T03:40:29.114Z,0.00
2023-03-01T03:41:29.096Z,0.00
2023-03-01T03:42:29.096Z,0.00
2023-03-01T03:43:29.101Z,0.00
2023-03-01T03:44:29.074Z,0.00
2023-03-01T03:45:29.098Z,0.00
2023-03-01T03:46:29.089Z,0.00
2023-03-01T03:47:29.031Z,0.00
2023-03-01T03:48:29.020Z,0.00
2023-03-01T03:49:29.015Z,0.00
2023-03-01T03:50:29.003Z,0.00
2023-03-01T03:51:29.063Z,0.00
2023-03-01T03:52:29.009Z,0.00
2023-03-01T03:53:28.970Z,0.00
2023-03-01T03:54:29.000Z,0.00
2023-03-01T03:55:28.962Z,0.00
2023-03-01T03:56:29.150Z,0.00
2023-03-01T03:57:28.971Z,0.00
2023-03-01T03:58:28.924Z,0.00
2023-03-01T03:59:28.911Z,0.00
2023-03-01T04:00:28.901Z,0.00
2023-03-01T04:01:28.939Z,0.00
2023-03-01T04:02:28.930Z,0.00
2023-03-01T04:03:28.864Z,0.00
2023-03-01T04:04:28.860Z,0.00
2023-03-01T04:05:28.901Z,0.00
2023-03-01T04:06:29.130Z,0.00
2023-03-01T04:07:28.829Z,0.00
2023-03-01T04:08:28.856Z,0.00
2023-03-01T04:09:28.808Z,0.00
2023-03-01T04:10:28.829Z,0.00
2023-03-01T04:11:28.786Z,0.00
2023-03-01T04:12:28.775Z,0.00
2023-03-01T04:13:28.765Z,0.00
2023-03-01T04:14:28.787Z,0.00
2023-03-01T04:15:28.830Z,0.00
2023-03-01T04:16:29.187Z,0.00
2023-03-01T04:17:28.721Z,0.00
2023-03-01T04:18:28.703Z,0.00
2023-03-01T04:19:28.693Z,0.00
2023-03-01T04:20:28.693Z,0.00
2023-03-01T04:21:28.720Z,0.00
2023-03-01T04:22:28.662Z,0.00
2023-03-01T04:23:28.647Z,0.00
2023-03-01T04:24:28.660Z,0.00
2023-03-01T04:25:28.654Z,0.00
2023-03-01T04:26:29.039Z,0.00
2023-03-01T04:27:28.610Z,0.00
2023-03-01T04:28:28.607Z,0.00
2023-03-01T04:29:28.588Z,0.00
2023-03-01T04:30:28.580Z,0.00
2023-03-01T04:31:28.631Z,0.00
2023-03-01T04:32:28.673Z,0.00
2023-03-01T04:33:28.554Z,0.00
2023-03-01T04:34:28.566Z,0.00
2023-03-01T04:35:28.639Z,0.00
2023-03-01T04:36:28.754Z,0.00
2023-03-01T04:37:28.513Z,0.00
2023-03-01T04:38:28.492Z,0.00
2023-03-01T04:39:28.520Z,0.00
2023-03-01T04:40:28.489Z,0.00
2023-03-01T04:41:28.477Z,0.00
2023-03-01T04:42:28.456Z,0.00
2023-03-01T04:43:28.438Z,0.00
2023-03-01T04:44:28.434Z,0.00
2023-03-01T04:45:28.463Z,0.00
2023-03-01T04:46:28.547Z,0.00
2023-03-01T04:47:28.399Z,0.00
2023-03-01T04:48:28.380Z,0.00
2023-03-01T04:49:28.371Z,0.00
2023-03-01T04:50:28.372Z,0.00
2023-03-01T04:51:28.390Z,0.00
2023-03-01T04:52:28.352Z,0.00
2023-03-01T04:53:28.337Z,0.00
2023-03-01T04:54:28.319Z,0.00
2023-03-01T04:55:28.392Z,0.00
2023-03-01T04:56:28.556Z,0.00
2023-03-01T04:57:28.286Z,0.00
2023-03-01T04:58:28.279Z,0.00
2023-03-01T04:59:28.275Z,0.00
2023-03-01T05:00:28.260Z,0.00
2023-03-01T05:01:28.272Z,0.00
2023-03-01T05:02:28.251Z,0.00
2023-03-01T05:03:28.232Z,0.00
2023-03-01T05:04:28.301Z,0.00
2023-03-01T05:05:28.216Z,0.00
2023-03-01T05:06:28.264Z,0.00
2023-03-01T05:07:28.228Z,0.00
2023-03-01T05:08:28.172Z,0.00
2023-03-01T05:09:28.156Z,0.00
2023-03-01T05:10:28.159Z,0.00
2023-03-01T05:11:28.177Z,0.00
2023-03-01T05:12:28.151Z,0.00
2023-03-01T05:13:28.117Z,0.00
2023-03-01T05:14:28.143Z,0.00
2023-03-01T05:15:28.103Z,0.00
2023-03-01T05:16:28.525Z,0.00
2023-03-01T05:17:28.074Z,0.00
2023-03-01T05:18:28.089Z,0.00
2023-03-01T05:19:28.063Z,0.00
2023-03-01T05:20:28.089Z,0.00
2023-03-01T05:21:28.028Z,0.00
2023-03-01T05:22:28.027Z,0.00
2023-03-01T05:23:28.016Z,0.00
2023-03-01T05:24:28.006Z,0.00
2023-03-01T05:25:27.990Z,0.00
2023-03-01T05:26:28.881Z,0.00
2023-03-01T05:27:27.974Z,4.00
2023-03-01T05:28:27.979Z,4.00
2023-03-01T05:29:27.954Z,0.00
2023-03-01T05:30:27.950Z,4.00
2023-03-01T05:31:28.040Z,4.00
2023-03-01T05:32:27.971Z,4.00
2023-03-01T05:33:27.909Z,8.00
2023-03-01T05:34:27.911Z,4.00
2023-03-01T05:35:27.925Z,8.00
2023-03-01T05:36:27.921Z,12.00
2023-03-01T05:37:27.863Z,12.00
2023-03-01T05:38:27.860Z,12.00
2023-03-01T05:39:27.862Z,16.00
2023-03-01T05:40:27.828Z,20.00
2023-03-01T05:41:27.858Z,20.00
2023-03-01T05:42:27.851Z,24.00
2023-03-01T05:43:27.793Z,28.00
2023-03-01T05:44:27.805Z,32.00
2023-03-01T05:45:27.784Z,32.00
2023-03-01T05:46:27.801Z,40.00
2023-03-01T05:47:27.758Z,44.00
2023-03-01T05:48:27.768Z,52.00
2023-03-01T05:49:27.740Z,60.00
2023-03-01T05:50:27.730Z,64.00
2023-03-01T05:51:27.747Z,68.00
2023-03-01T05:52:27.701Z,80.00
2023-03-01T05:53:27.688Z,88.00
2023-03-01T05:54:27.682Z,96.00
2023-03-01T05:55:29.136Z,104.00
2023-03-01T05:56:27.882Z,116.00
2023-03-01T05:57:27.694Z,128.00
2023-03-01T05:58:27.650Z,140.00
2023-03-01T05:59:27.657Z,152.00
2023-03-01T06:00:27.675Z,164.00
2023-03-01T06:01:27.616Z,180.00
2023-03-01T06:02:27.613Z,192.00
2023-03-01T06:03:27.598Z,208.00
2023-03-01T06:04:28.314Z,224.00
2023-03-01T06:05:27.768Z,236.00
2023-03-01T06:06:29.099Z,252.00
2023-03-01T06:07:27.566Z,272.00
2023-03-01T06:08:27.567Z,284.00
2023-03-01T06:09:27.734Z,304.00
2023-03-01T06:10:27.553Z,324.00
2023-03-01T06:11:27.503Z,340.00
2023-03-01T06:12:27.491Z,352.00
2023-03-01T06:13:27.486Z,372.00
2023-03-01T06:14:27.473Z,388.00
2023-03-01T06:15:27.453Z,408.00
2023-03-01T06:16:27.552Z,424.00
2023-03-01T06:17:27.433Z,436.00
2023-03-01T06:18:27.437Z,452.00
2023-03-01T06:19:27.421Z,460.00
2023-03-01T06:20:27.430Z,476.00
2023-03-01T06:21:27.393Z,492.00
2023-03-01T06:22:27.387Z,504.00
2023-03-01T06:23:27.375Z,528.00
2023-03-01T06:24:27.377Z,548.00
2023-03-01T06:25:27.383Z,572.00
2023-03-01T06:26:27.369Z,596.00
2023-03-01T06:27:27.328Z,628.00
2023-03-01T06:28:27.320Z,660.00
2023-03-01T06:29:27.317Z,688.00
2023-03-01T06:30:27.302Z,716.00
2023-03-01T06:31:27.394Z,748.00
2023-03-01T06:32:27.367Z,776.00
2023-03-01T06:33:27.264Z,796.00
2023-03-01T06:34:27.262Z,820.00
2023-03-01T06:35:27.262Z,844.00
2023-03-01T06:36:27.287Z,868.00
2023-03-01T06:37:27.228Z,884.00
2023-03-01T06:38:27.278Z,896.00
2023-03-01T06:39:27.209Z,908.00
2023-03-01T06:40:27.201Z,916.00
2023-03-01T06:41:27.186Z,924.00
2023-03-01T06:42:27.210Z,936.00
2023-03-01T06:43:27.182Z,948.00
2023-03-01T06:44:27.147Z,964.00
2023-03-01T06:45:27.155Z,988.00
2023-03-01T06:46:27.204Z,1000.00
2023-03-01T06:47:27.114Z,1012.00
2023-03-01T06:48:27.185Z,1024.00
2023-03-01T06:49:27.098Z,1040.00
2023-03-01T06:50:27.144Z,1060.00
2023-03-01T06:51:27.079Z,1092.00
2023-03-01T06:52:27.080Z,1132.00
2023-03-01T06:53:27.159Z,1176.00
2023-03-01T06:54:27.052Z,1220.00
2023-03-01T06:55:27.038Z,1260.00
2023-03-01T06:56:27.093Z,1292.00
2023-03-01T06:57:27.061Z,1324.00
2023-03-01T06:58:27.028Z,1348.00
2023-03-01T06:59:27.002Z,1376.00
2023-03-01T07:00:26.986Z,1404.00
2023-03-01T07:01:26.969Z,1436.00
2023-03-01T07:02:27.004Z,1476.00
2023-03-01T07:03:26.944Z,1516.00
2023-03-01T07:04:26.985Z,1568.00
2023-03-01T07:05:26.920Z,1604.00
2023-03-01T07:06:26.902Z,1620.00
2023-03-01T07:07:26.938Z,1628.00
2023-03-01T07:08:26.933Z,1636.00
2023-03-01T07:09:26.911Z,1648.00
2023-03-01T07:10:26.905Z,1664.00
2023-03-01T07:11:26.877Z,1684.00
2023-03-01T07:12:26.858Z,1704.00
2023-03-01T07:13:26.837Z,1724.00
2023-03-01T07:14:26.819Z,1736.00
2023-03-01T07:15:26.849Z,1756.00
2023-03-01T07:16:26.843Z,1780.00
2023-03-01T07:17:26.824Z,1800.00
2023-03-01T07:18:26.789Z,1816.00
2023-03-01T07:19:26.780Z,1840.00
2023-03-01T07:20:26.903Z,1848.00
2023-03-01T07:21:26.780Z,1868.00
2023-03-01T07:22:26.738Z,1892.00
2023-03-01T07:23:26.722Z,1924.00
2023-03-01T07:24:26.711Z,1940.00
2023-03-01T07:25:26.704Z,1968.00
2023-03-01T07:26:26.719Z,1992.00
2023-03-01T07:27:26.691Z,2024.00
2023-03-01T07:28:26.716Z,2044.00
2023-03-01T07:29:26.673Z,2056.00
2023-03-01T07:30:26.644Z,2072.00
2023-03-01T07:31:26.720Z,2104.00
2023-03-01T07:32:26.769Z,2132.00
2023-03-01T07:33:26.649Z,2156.00
2023-03-01T07:34:26.644Z,2176.00
2023-03-01T07:35:26.678Z,2208.00
2023-03-01T07:36:26.684Z,2248.00
2023-03-01T07:37:26.632Z,2288.00
2023-03-01T07:38:26.593Z,2328.00
2023-03-01T07:39:26.579Z,2356.00
2023-03-01T07:40:26.591Z,2392.00
2023-03-01T07:41:26.555Z,2436.00
2023-03-01T07:42:26.557Z,2484.00
2023-03-01T07:43:26.559Z,2524.00
2023-03-01T07:44:26.507Z,2548.00
2023-03-01T07:45:26.580Z,2596.00
2023-03-01T07:46:26.486Z,2628.00
2023-03-01T07:47:26.475Z,2680.00
2023-03-01T07:48:26.458Z,2716.00
2023-03-01T07:49:26.454Z,2752.00
2023-03-01T07:50:26.476Z,2788.00
2023-03-01T07:51:26.468Z,2716.00
2023-03-01T07:52:26.515Z,2720.00
2023-03-01T07:53:27.265Z,2728.00
2023-03-01T07:54:26.404Z,2676.00
2023-03-01T07:55:26.414Z,2508.00
2023-03-01T07:56:26.378Z,2648.00
2023-03-01T07:57:26.376Z,2736.00
2023-03-01T07:58:26.359Z,2896.00
2023-03-01T07:59:26.348Z,2976.00
2023-03-01T08:00:26.368Z,3052.00
2023-03-01T08:01:26.410Z,3156.00
2023-03-01T08:02:26.341Z,3224.00
2023-03-01T08:03:26.308Z,3244.00
2023-03-01T08:04:26.290Z,3296.00
2023-03-01T08:05:26.311Z,3320.00
2023-03-01T08:06:26.265Z,3348.00
2023-03-01T08:07:26.261Z,3384.00
2023-03-01T08:08:26.292Z,3408.00
2023-03-01T08:09:26.233Z,3444.00
2023-03-01T08:10:26.235Z,3484.00
2023-03-01T08:11:26.309Z,3528.00
2023-03-01T08:12:26.259Z,3560.00
2023-03-01T08:13:26.192Z,3616.00
2023-03-01T08:14:26.175Z,3696.00
2023-03-01T08:15:26.207Z,3716.00
2023-03-01T08:16:26.247Z,3740.00
2023-03-01T08:17:26.143Z,3732.00
2023-03-01T08:18:26.132Z,3740.00
2023-03-01T08:19:26.114Z,3744.00
2023-03-01T08:20:26.193Z,3784.00
2023-03-01T08:21:26.120Z,3808.00
2023-03-01T08:22:26.104Z,3848.00
2023-03-01T08:23:26.072Z,3864.00
2023-03-01T08:24:26.115Z,3912.00
2023-03-01T08:25:26.083Z,3944.00
2023-03-01T08:26:26.085Z,4012.00
2023-03-01T08:27:26.032Z,4068.00
2023-03-01T08:28:26.064Z,4084.00
2023-03-01T08:29:26.025Z,4024.00
2023-03-01T08:30:26.040Z,4048.00
2023-03-01T08:31:26.072Z,4124.00
2023-03-01T08:32:26.070Z,4172.00
2023-03-01T08:33:26.037Z,4248.00
2023-03-01T08:34:25.953Z,4300.00
2023-03-01T08:35:25.966Z,4360.00
2023-03-01T08:36:25.950Z,4368.00
2023-03-01T08:37:25.956Z,4492.00
2023-03-01T08:38:25.915Z,4708.00
2023-03-01T08:39:26.094Z,4952.00
2023-03-01T08:40:25.916Z,5132.00
2023-03-01T08:41:25.903Z,5276.00
2023-03-01T08:42:25.900Z,5484.00
2023-03-01T08:43:26.450Z,5664.00
2023-03-01T08:44:25.842Z,5736.00
2023-03-01T08:45:25.853Z,5800.00
2023-03-01T08:46:25.906Z,5848.00
2023-03-01T08:47:25.820Z,5920.00
2023-03-01T08:48:25.844Z,6008.00
2023-03-01T08:49:25.793Z,6080.00
2023-03-01T08:50:25.798Z,6156.00
2023-03-01T08:51:25.794Z,6292.00
2023-03-01T08:52:25.777Z,6428.00
2023-03-01T08:53:25.762Z,6600.00
2023-03-01T08:54:25.736Z,6896.00
2023-03-01T08:55:25.740Z,7572.00
2023-03-01T08:56:25.738Z,9364.00
2023-03-01T08:57:25.881Z,17184.00
2023-03-01T08:58:25.709Z,29984.00
2023-03-01T08:59:25.692Z,35584.00
2023-03-01T09:00:25.699Z,37600.00
2023-03-01T09:01:25.666Z,39712.00
2023-03-01T09:02:25.725Z,41568.00
2023-03-01T09:03:25.661Z,42880.00
2023-03-01T09:04:25.666Z,43904.00
2023-03-01T09:05:25.620Z,45216.00
2023-03-01T09:06:25.625Z,45536.00
2023-03-01T09:07:25.633Z,45312.00
2023-03-01T09:08:25.618Z,45216.00
2023-03-01T09:09:25.589Z,45472.00
2023-03-01T09:10:25.601Z,46432.00
2023-03-01T09:11:25.555Z,46400.00
2023-03-01T09:12:25.901Z,45824.00
2023-03-01T09:13:25.538Z,45856.00
2023-03-01T09:14:25.516Z,45760.00
2023-03-01T09:15:25.529Z,45408.00
2023-03-01T09:16:25.555Z,45312.00
2023-03-01T09:17:25.538Z,46112.00
2023-03-01T09:18:25.480Z,46944.00
2023-03-01T09:19:27.323Z,46688.00
2023-03-01T09:20:25.480Z,44576.00
2023-03-01T09:21:39.158Z,44736.00
2023-03-01T09:22:27.324Z,45664.00
2023-03-01T09:23:25.435Z,43168.00
2023-03-01T09:24:25.420Z,43456.00
2023-03-01T09:25:25.405Z,45280.00
2023-03-01T09:26:25.412Z,44192.00
2023-03-01T09:27:25.408Z,41408.00
2023-03-01T09:28:30.016Z,35168.00
2023-03-01T09:29:29.333Z,32672.00
2023-03-01T09:30:25.369Z,30848.00
2023-03-01T09:31:25.340Z,28288.00
2023-03-01T09:32:25.458Z,28544.00
2023-03-01T09:33:25.343Z,32416.00
2023-03-01T09:34:25.381Z,36992.00
2023-03-01T09:35:25.324Z,36288.00
2023-03-01T09:36:25.294Z,32800.00
2023-03-01T09:37:25.285Z,33440.00
2023-03-01T09:38:26.031Z,33120.00
2023-03-01T09:39:25.281Z,24512.00
2023-03-01T09:40:25.276Z,22560.00
2023-03-01T09:41:25.239Z,20416.00
2023-03-01T09:42:25.231Z,14144.00
2023-03-01T09:43:25.216Z,12708.00
2023-03-01T09:44:25.243Z,12000.00
2023-03-01T09:45:25.235Z,14000.00
2023-03-01T09:46:25.260Z,16544.00
2023-03-01T09:47:25.203Z,17536.00
2023-03-01T09:48:25.166Z,22048.00
2023-03-01T09:49:25.157Z,23008.00
2023-03-01T09:50:25.165Z,18496.00
2023-03-01T09:51:25.133Z,13316.00
2023-03-01T09:52:25.144Z,12812.00
2023-03-01T09:53:25.122Z,14564.00
2023-03-01T09:54:25.091Z,14420.00
2023-03-01T09:55:25.116Z,25632.00
2023-03-01T09:56:25.083Z,31456.00
2023-03-01T09:57:25.061Z,28960.00
2023-03-01T09:58:25.072Z,28448.00
2023-03-01T09:59:25.081Z,34112.00
2023-03-01T10:00:25.052Z,40096.00
2023-03-01T10:01:25.034Z,44160.00
2023-03-01T10:02:25.006Z,39744.00
2023-03-01T10:03:25.006Z,43104.00
2023-03-01T10:04:25.065Z,48512.00
2023-03-01T10:05:24.986Z,51168.00
2023-03-01T10:06:34.381Z,52128.00
2023-03-01T10:07:25.984Z,53056.00
2023-03-01T10:08:24.950Z,53856.00
2023-03-01T10:09:24.948Z,53760.00
2023-03-01T10:10:24.944Z,53088.00
2023-03-01T10:11:25.435Z,51744.00
2023-03-01T10:12:24.906Z,50912.00
2023-03-01T10:13:24.901Z,47200.00
2023-03-01T10:14:24.929Z,43584.00
2023-03-01T10:15:24.887Z,40224.00
2023-03-01T10:16:25.183Z,42016.00
2023-03-01T10:17:24.848Z,36160.00
2023-03-01T10:18:24.866Z,25664.00
2023-03-01T10:19:24.851Z,26560.00
2023-03-01T10:20:24.823Z,24128.00
2023-03-01T10:21:24.833Z,21440.00
2023-03-01T10:22:24.797Z,13900.00
2023-03-01T10:23:24.789Z,13936.00
2023-03-01T10:24:24.816Z,16192.00
2023-03-01T10:25:24.795Z,10000.00
2023-03-01T10:26:24.762Z,8528.00
2023-03-01T10:27:24.758Z,7972.00
2023-03-01T10:28:24.744Z,8128.00
2023-03-01T10:29:24.757Z,8168.00
2023-03-01T10:30:24.714Z,8368.00
2023-03-01T10:31:24.721Z,7892.00
2023-03-01T10:32:25.377Z,7368.00
2023-03-01T10:33:24.682Z,7424.00
2023-03-01T10:34:24.698Z,7520.00
2023-03-01T10:35:24.712Z,7596.00
2023-03-01T10:36:24.764Z,7988.00
2023-03-01T10:37:24.633Z,8496.00
2023-03-01T10:38:24.630Z,8624.00
2023-03-01T10:39:24.629Z,8776.00
2023-03-01T10:40:24.603Z,8768.00
2023-03-01T10:41:24.613Z,8636.00
2023-03-01T10:42:24.587Z,8304.00
2023-03-01T10:43:33.888Z,8156.00
2023-03-01T10:44:24.595Z,8408.00
2023-03-01T10:45:25.894Z,8460.00
2023-03-01T10:46:24.631Z,8280.00
2023-03-01T10:47:24.536Z,7932.00
2023-03-01T10:48:24.533Z,7668.00
2023-03-01T10:49:24.518Z,7624.00
2023-03-01T10:50:24.510Z,7704.00
2023-03-01T10:51:24.507Z,7796.00
2023-03-01T10:52:24.485Z,7820.00
2023-03-01T10:53:24.478Z,7764.00
2023-03-01T10:54:24.463Z,7720.00
2023-03-01T10:55:24.458Z,7684.00
2023-03-01T10:56:24.498Z,7624.00
2023-03-01T10:57:24.433Z,7584.00
2023-03-01T10:58:24.436Z,7512.00
2023-03-01T10:59:24.410Z,7360.00
2023-03-01T11:00:24.419Z,7096.00
2023-03-01T11:01:24.455Z,6964.00
2023-03-01T11:02:26.032Z,6868.00
2023-03-01T11:03:24.388Z,6816.00
2023-03-01T11:04:24.387Z,6676.00
2023-03-01T11:05:24.350Z,6632.00
2023-03-01T11:06:24.331Z,6504.00
2023-03-01T11:07:24.316Z,6400.00
2023-03-01T11:08:24.312Z,6292.00
2023-03-01T11:09:24.346Z,6224.00
2023-03-01T11:10:24.295Z,6124.00
2023-03-01T11:11:24.288Z,5956.00
2023-03-01T11:12:24.283Z,5860.00
2023-03-01T11:13:24.274Z,5828.00
2023-03-01T11:14:27.332Z,5792.00
2023-03-01T11:15:24.236Z,5692.00
2023-03-01T11:16:24.270Z,5660.00
2023-03-01T11:17:24.228Z,5644.00
2023-03-01T11:18:33.915Z,5548.00
2023-03-01T11:19:25.202Z,5696.00
2023-03-01T11:20:24.807Z,5716.00
2023-03-01T11:21:24.190Z,5528.00
2023-03-01T11:22:24.225Z,5660.00
2023-03-01T11:23:24.154Z,5692.00
2023-03-01T11:24:24.162Z,5584.00
2023-03-01T11:25:24.149Z,5248.00
2023-03-01T11:26:24.110Z,5044.00
2023-03-01T11:27:24.127Z,5376.00
2023-03-01T11:28:24.213Z,5776.00
2023-03-01T11:29:24.090Z,5680.00
2023-03-01T11:30:24.088Z,5640.00
2023-03-01T11:31:24.125Z,5436.00
2023-03-01T11:32:24.200Z,5956.00
2023-03-01T11:33:24.031Z,6024.00
2023-03-01T11:34:24.028Z,6048.00
2023-03-01T11:35:24.013Z,6064.00
2023-03-01T11:36:24.113Z,6092.00
2023-03-01T11:37:24.015Z,6068.00
2023-03-01T11:38:23.977Z,6140.00
2023-03-01T11:39:23.968Z,6192.00
2023-03-01T11:40:23.955Z,6224.00
2023-03-01T11:41:23.955Z,6228.00
2023-03-01T11:42:23.943Z,6176.00
2023-03-01T11:43:23.920Z,6132.00
2023-03-01T11:44:23.905Z,6088.00
2023-03-01T11:45:23.908Z,6100.00
2023-03-01T11:46:23.954Z,6088.00
2023-03-01T11:47:23.992Z,6056.00
2023-03-01T11:48:23.877Z,6076.00
2023-03-01T11:49:23.857Z,5996.00
2023-03-01T11:50:23.845Z,5824.00
2023-03-01T11:51:23.829Z,5604.00
2023-03-01T11:52:23.977Z,5348.00
2023-03-01T11:53:23.812Z,5356.00
2023-03-01T11:54:23.842Z,5480.00
2023-03-01T11:55:23.784Z,5368.00
2023-03-01T11:56:24.070Z,5328.00
2023-03-01T11:57:28.921Z,5236.00
2023-03-01T11:58:24.759Z,5060.00
2023-03-01T11:59:23.761Z,5204.00
2023-03-01T12:00:23.735Z,5208.00
2023-03-01T12:01:23.798Z,5156.00
2023-03-01T12:02:23.782Z,5132.00
2023-03-01T12:03:23.718Z,4984.00
2023-03-01T12:04:23.745Z,4888.00
2023-03-01T12:05:23.711Z,4912.00
2023-03-01T12:06:23.690Z,4848.00
2023-03-01T12:07:23.655Z,4908.00
2023-03-01T12:08:23.696Z,4972.00
2023-03-01T12:09:23.698Z,4964.00
2023-03-01T12:10:23.644Z,4992.00
2023-03-01T12:11:23.616Z,5032.00
2023-03-01T12:12:23.657Z,5056.00
2023-03-01T12:13:23.613Z,5100.00
2023-03-01T12:14:23.952Z,5024.00
2023-03-01T12:15:23.563Z,4972.00
2023-03-01T12:16:37.571Z,4828.00
2023-03-01T12:17:24.536Z,4876.00
2023-03-01T12:18:23.531Z,4712.00
2023-03-01T12:19:23.562Z,4656.00
2023-03-01T12:20:23.540Z,4584.00
2023-03-01T12:21:23.502Z,4544.00
2023-03-01T12:22:23.492Z,4440.00
2023-03-01T12:23:23.500Z,4348.00
2023-03-01T12:24:23.606Z,4372.00
2023-03-01T12:25:23.485Z,4336.00
2023-03-01T12:26:23.448Z,4264.00
2023-03-01T12:27:23.446Z,4232.00
2023-03-01T12:28:23.457Z,4236.00
2023-03-01T12:29:23.419Z,4212.00
2023-03-01T12:30:23.464Z,4228.00
2023-03-01T12:31:23.419Z,4324.00
2023-03-01T12:32:23.450Z,4340.00
2023-03-01T12:33:23.386Z,4312.00
2023-03-01T12:34:23.378Z,4316.00
2023-03-01T12:35:23.354Z,4268.00
2023-03-01T12:36:23.384Z,4332.00
2023-03-01T12:37:23.332Z,4096.00
2023-03-01T12:38:23.324Z,4128.00
2023-03-01T12:39:23.298Z,4224.00